createdAt,value
2018-11-01T00:01:54.660Z,4.37
2018-11-01T00:04:33.110Z,3.10
2018-11-01T00:07:02.783Z,2.70
2018-11-01T00:09:34.756Z,2.70
2018-11-01T00:12:15.432Z,3.70
2018-11-01T00:15:05.854Z,3.23
2018-11-01T00:17:43.342Z,3.13
2018-11-01T00:20:28.603Z,3.20
2018-11-01T00:22:58.306Z,4.27
2018-11-01T00:25:30.946Z,3.27
2018-11-01T00:28:04.288Z,3.27
2018-11-01T00:30:58.719Z,2.80
2018-11-01T00:33:38.175Z,3.40
2018-11-01T00:36:10.152Z,4.03
2018-11-01T00:41:36.505Z,3.33
2018-11-01T00:44:20.518Z,3.10
2018-11-01T00:47:01.071Z,4.57
2018-11-01T00:49:34.345Z,3.00
2018-11-01T00:52:10.232Z,3.20
2018-11-01T00:54:41.861Z,3.10
2018-11-01T00:57:30.528Z,3.37
2018-11-01T01:00:05.825Z,4.47
2018-11-01T01:08:59.013Z,2.87
2018-11-01T01:11:30.336Z,3.33
2018-11-01T01:13:59.731Z,4.10
2018-11-01T01:19:35.197Z,3.20
2018-11-01T01:25:07.852Z,3.07
2018-11-01T01:33:33.007Z,3.17
2018-11-01T01:36:03.667Z,3.70
2018-11-01T01:41:33.623Z,3.50
2018-11-01T01:47:26.126Z,2.90
2018-11-01T01:50:02.717Z,3.23
2018-11-01T01:52:33.804Z,3.80
2018-11-01T01:55:10.134Z,3.03
2018-11-01T01:57:44.574Z,2.97
2018-11-01T02:00:18.376Z,4.03
2018-11-01T02:05:33.728Z,3.37
2018-11-01T02:08:03.223Z,4.27
2018-11-01T02:13:34.250Z,3.43
2018-11-01T02:16:03.755Z,3.13
2018-11-01T02:18:34.160Z,2.90
2018-11-01T02:21:06.430Z,2.60
2018-11-01T02:26:34.636Z,3.10
2018-11-01T02:29:20.051Z,3.00
2018-11-01T02:32:04.794Z,2.67
2018-11-01T02:34:39.622Z,2.40
2018-11-01T02:37:34.536Z,3.17
2018-11-01T02:42:45.451Z,5.10
2018-11-01T02:45:43.603Z,3.10
2018-11-01T02:48:22.253Z,3.83
2018-11-01T02:50:59.285Z,3.50
2018-11-01T02:53:32.557Z,3.27
2018-11-01T02:56:21.462Z,3.40
2018-11-01T03:02:01.207Z,3.07
2018-11-01T03:07:38.021Z,2.40
2018-11-01T03:14:40.126Z,2.87
2018-11-01T03:17:25.597Z,2.83
2018-11-01T03:20:06.240Z,2.43
2018-11-01T03:22:38.397Z,2.70
2018-11-01T03:25:14.674Z,2.93
2018-11-01T03:30:33.829Z,2.63
2018-11-01T03:33:33.053Z,2.93
2018-11-01T03:36:06.364Z,3.53
2018-11-01T03:38:37.509Z,3.40
2018-11-01T03:44:28.750Z,3.33
2018-11-01T03:46:59.364Z,3.03
2018-11-01T03:49:36.080Z,2.87
2018-11-01T03:52:12.400Z,3.67
2018-11-01T03:54:42.710Z,3.30
2018-11-01T03:57:23.123Z,3.67
2018-11-01T04:00:03.665Z,4.17
2018-11-01T04:02:36.857Z,2.97
2018-11-01T04:05:10.805Z,2.80
2018-11-01T04:11:01.013Z,4.13
2018-11-01T04:13:52.532Z,3.33
2018-11-01T04:16:30.279Z,3.13
2018-11-01T04:19:28.340Z,3.27
2018-11-01T04:22:07.201Z,3.03
2018-11-01T04:24:39.962Z,3.57
2018-11-01T04:27:29.705Z,3.20
2018-11-01T04:30:12.452Z,3.60
2018-11-01T04:33:00.783Z,3.40
2018-11-01T04:35:39.151Z,3.40
2018-11-01T04:38:35.518Z,3.57
2018-11-01T04:41:08.430Z,3.33
2018-11-01T04:43:39.704Z,4.63
2018-11-01T04:46:22.026Z,3.60
2018-11-01T04:48:59.873Z,4.03
2018-11-01T04:51:31.537Z,3.70
2018-11-01T04:54:20.624Z,3.87
2018-11-01T04:57:00.746Z,5.03
2018-11-01T04:59:37.296Z,3.87
2018-11-01T05:02:09.236Z,5.63
2018-11-01T05:04:42.266Z,4.10
2018-11-01T05:07:17.411Z,4.20
2018-11-01T05:09:56.444Z,4.10
2018-11-01T05:12:44.346Z,3.90
2018-11-01T05:15:40.027Z,6.60
2018-11-01T05:18:17.505Z,5.50
2018-11-01T05:20:59.449Z,5.23
2018-11-01T05:23:30.762Z,4.33
2018-11-01T05:26:19.395Z,5.23
2018-11-01T05:29:05.907Z,4.20
2018-11-01T05:37:20.931Z,5.07
2018-11-01T05:39:53.747Z,8.03
2018-11-01T05:42:22.989Z,6.67
2018-11-01T05:44:57.459Z,6.17
2018-11-01T05:47:42.923Z,5.33
2018-11-01T05:50:27.399Z,6.30
2018-11-01T05:52:59.734Z,9.77
2018-11-01T05:55:29.560Z,5.53
2018-11-01T05:58:02.422Z,8.40
2018-11-01T06:00:33.186Z,6.80
2018-11-01T06:03:04.869Z,6.30
2018-11-01T06:05:39.168Z,5.90
2018-11-01T06:08:29.157Z,5.50
2018-11-01T06:11:03.045Z,6.60
2018-11-01T06:13:33.962Z,5.57
2018-11-01T06:19:17.731Z,6.60
2018-11-01T06:27:22.688Z,5.43
2018-11-01T06:29:56.072Z,6.80
2018-11-01T06:32:25.371Z,6.70
2018-11-01T06:35:04.242Z,6.30
2018-11-01T06:37:36.167Z,7.10
2018-11-01T06:43:02.537Z,6.47
2018-11-01T06:45:38.574Z,5.33
2018-11-01T06:48:13.879Z,5.70
2018-11-01T06:50:55.100Z,5.10
2018-11-01T07:03:47.774Z,5.40
2018-11-01T07:06:23.835Z,5.57
2018-11-01T07:15:06.451Z,5.23
2018-11-01T07:17:39.834Z,8.83
2018-11-01T07:20:33.775Z,11.10
2018-11-01T07:23:04.693Z,5.50
2018-11-01T07:25:52.864Z,5.60
2018-11-01T07:47:14.968Z,5.97
2018-11-01T07:49:50.644Z,5.60
2018-11-01T07:52:33.128Z,5.40
2018-11-01T07:55:03.384Z,6.80
2018-11-01T07:57:35.617Z,8.20
2018-11-01T08:00:10.449Z,4.50
2018-11-01T08:02:47.061Z,6.40
2018-11-01T08:05:31.444Z,8.23
2018-11-01T08:08:02.082Z,8.00
2018-11-01T08:10:33.022Z,5.57
2018-11-01T08:13:05.266Z,6.93
2018-11-01T08:15:37.349Z,5.97
2018-11-01T08:18:10.176Z,6.90
2018-11-01T08:20:42.317Z,7.83
2018-11-01T08:23:16.983Z,6.60
2018-11-01T08:25:53.916Z,7.10
2018-11-01T08:28:23.823Z,6.37
2018-11-01T08:30:57.032Z,7.40
2018-11-01T08:33:28.139Z,7.40
2018-11-01T08:39:11.475Z,15.43
2018-11-01T08:41:40.958Z,6.87
2018-11-01T08:44:44.694Z,6.87
2018-11-01T08:47:23.784Z,6.73
2018-11-01T08:49:54.534Z,8.30
2018-11-01T08:52:28.331Z,7.03
2018-11-01T08:58:40.288Z,6.80
2018-11-01T09:01:18.650Z,8.50
2018-11-01T09:03:49.994Z,8.30
2018-11-01T09:06:33.160Z,12.60
2018-11-01T09:12:31.578Z,7.47
2018-11-01T09:20:37.179Z,9.87
2018-11-01T09:23:09.837Z,11.97
2018-11-01T09:25:45.237Z,8.87
2018-11-01T09:28:20.806Z,11.17
2018-11-01T09:30:50.296Z,10.20
2018-11-01T09:33:24.665Z,9.23
2018-11-01T09:39:02.415Z,8.70
2018-11-01T09:45:30.020Z,10.73
2018-11-01T09:48:05.760Z,9.80
2018-11-01T09:50:35.071Z,11.13
2018-11-01T09:53:15.420Z,10.40
2018-11-01T09:55:55.434Z,8.73
2018-11-01T09:58:28.576Z,8.33
2018-11-01T10:04:21.551Z,9.17
2018-11-01T10:06:51.560Z,10.97
2018-11-01T10:09:22.016Z,9.50
2018-11-01T10:11:51.470Z,8.53
2018-11-01T10:14:40.960Z,9.60
2018-11-01T10:18:23.885Z,8.67
2018-11-01T10:20:59.546Z,10.23
2018-11-01T10:23:32.843Z,9.60
2018-11-01T10:26:05.280Z,8.93
2018-11-01T10:29:03.063Z,8.97
2018-11-01T10:31:33.676Z,9.23
2018-11-01T10:40:33.234Z,12.00
2018-11-01T10:43:15.727Z,8.60
2018-11-01T10:46:06.403Z,9.90
2018-11-01T10:49:05.595Z,9.00
2018-11-01T10:51:42.072Z,9.80
2018-11-01T10:54:31.638Z,11.60
2018-11-01T10:57:06.467Z,11.50
2018-11-01T11:02:53.738Z,9.40
2018-11-01T11:05:23.272Z,11.20
2018-11-01T11:07:52.679Z,10.40
2018-11-01T11:10:24.643Z,9.07
2018-11-01T11:12:54.772Z,13.77
2018-11-01T11:15:26.728Z,15.40
2018-11-01T11:17:56.703Z,13.30
2018-11-01T11:20:26.019Z,8.97
2018-11-01T11:22:55.099Z,9.43
2018-11-01T11:25:24.506Z,9.80
2018-11-01T11:27:54.268Z,10.40
2018-11-01T11:30:24.314Z,9.40
2018-11-01T11:32:54.263Z,10.70
2018-11-01T11:35:23.528Z,9.20
2018-11-01T11:37:53.117Z,9.30
2018-11-01T11:40:22.628Z,9.37
2018-11-01T11:42:52.315Z,9.03
2018-11-01T11:45:21.888Z,10.83
2018-11-01T11:47:52.981Z,12.10
2018-11-01T11:50:22.414Z,10.10
2018-11-01T11:52:52.325Z,10.97
2018-11-01T11:55:21.489Z,9.37
2018-11-01T11:57:50.815Z,10.97
2018-11-01T12:00:19.854Z,8.47
2018-11-01T12:02:49.149Z,11.10
2018-11-01T12:05:18.883Z,9.10
2018-11-01T12:07:48.752Z,8.27
2018-11-01T12:10:18.234Z,8.97
2018-11-01T12:12:48.997Z,9.93
2018-11-01T12:15:18.308Z,9.33
2018-11-01T12:17:47.374Z,9.27
2018-11-01T12:20:16.593Z,12.23
2018-11-01T12:22:46.071Z,9.47
2018-11-01T12:25:15.318Z,9.53
2018-11-01T12:27:44.596Z,9.47
2018-11-01T12:30:13.876Z,10.03
2018-11-01T12:32:43.226Z,9.33
2018-11-01T12:35:12.906Z,8.90
2018-11-01T12:37:44.488Z,9.80
2018-11-01T12:40:17.278Z,8.97
2018-11-01T12:42:47.494Z,10.80
2018-11-01T12:45:17.712Z,11.37
2018-11-01T12:47:46.878Z,10.23
2018-11-01T12:50:17.126Z,10.17
2018-11-01T12:52:46.478Z,9.07
2018-11-01T12:55:15.587Z,9.73
2018-11-01T12:57:45.770Z,9.27
2018-11-01T13:00:15.289Z,9.53
2018-11-01T13:02:44.626Z,12.60
2018-11-01T13:05:13.502Z,14.27
2018-11-01T13:07:43.389Z,11.30
2018-11-01T13:10:12.702Z,9.00
2018-11-01T13:12:41.857Z,10.17
2018-11-01T13:15:12.564Z,9.60
2018-11-01T13:17:41.875Z,8.57
2018-11-01T13:20:11.362Z,9.50
2018-11-01T13:22:42.265Z,10.57
2018-11-01T13:25:12.718Z,11.07
2018-11-01T13:27:42.387Z,9.80
2018-11-01T13:30:13.342Z,9.93
2018-11-01T13:32:45.243Z,9.30
2018-11-01T13:35:14.957Z,9.90
2018-11-01T13:37:44.109Z,12.60
2018-11-01T13:40:13.390Z,9.53
2018-11-01T13:42:42.680Z,11.83
2018-11-01T13:45:12.626Z,10.70
2018-11-01T13:47:41.966Z,10.90
2018-11-01T13:50:12.123Z,9.00
2018-11-01T13:52:41.377Z,9.23
2018-11-01T13:55:12.114Z,9.20
2018-11-01T13:57:41.285Z,11.07
2018-11-01T14:00:14.338Z,11.57
2018-11-01T14:02:43.748Z,9.70
2018-11-01T14:05:14.348Z,9.77
2018-11-01T14:08:04.066Z,10.70
2018-11-01T14:10:33.990Z,10.33
2018-11-01T14:13:03.435Z,9.73
2018-11-01T14:15:40.015Z,10.40
2018-11-01T14:20:59.051Z,13.43
2018-11-01T14:23:28.454Z,11.27
2018-11-01T14:26:02.806Z,11.03
2018-11-01T14:28:32.290Z,9.90
2018-11-01T14:31:01.714Z,8.90
2018-11-01T14:33:31.563Z,8.07
2018-11-01T14:36:01.231Z,10.47
2018-11-01T14:38:30.346Z,9.80
2018-11-01T14:41:02.638Z,12.70
2018-11-01T14:43:31.903Z,10.07
2018-11-01T14:46:01.252Z,9.10
2018-11-01T14:48:30.455Z,12.03
2018-11-01T14:50:59.605Z,11.73
2018-11-01T14:53:29.530Z,10.47
2018-11-01T14:55:59.601Z,9.10
2018-11-01T14:58:28.375Z,10.23
2018-11-01T15:00:57.785Z,12.40
2018-11-01T15:03:27.168Z,11.97
2018-11-01T15:06:03.636Z,10.50
2018-11-01T15:08:33.017Z,10.47
2018-11-01T15:11:02.207Z,9.97
2018-11-01T15:13:31.641Z,9.97
2018-11-01T15:16:01.135Z,11.10
2018-11-01T15:18:30.606Z,9.87
2018-11-01T15:20:59.769Z,10.10
2018-11-01T15:23:29.195Z,11.07
2018-11-01T15:25:58.803Z,13.50
2018-11-01T15:28:28.242Z,11.60
2018-11-01T15:30:57.450Z,10.90
2018-11-01T15:33:27.258Z,13.73
2018-11-01T15:36:02.675Z,11.10
2018-11-01T15:38:32.311Z,12.80
2018-11-01T15:41:06.471Z,11.30
2018-11-01T15:43:35.758Z,10.83
2018-11-01T15:46:05.462Z,10.67
2018-11-01T15:48:36.071Z,9.93
2018-11-01T15:51:06.383Z,12.20
2018-11-01T15:53:35.786Z,10.10
2018-11-01T15:56:05.452Z,11.47
2018-11-01T15:58:35.719Z,14.40
2018-11-01T16:01:05.393Z,11.17
2018-11-01T16:03:34.739Z,10.53
2018-11-01T16:06:03.918Z,11.30
2018-11-01T16:08:33.057Z,10.70
2018-11-01T16:11:03.332Z,11.53
2018-11-01T16:13:32.650Z,10.00
2018-11-01T16:16:01.831Z,12.50
2018-11-01T16:18:31.439Z,10.37
2018-11-01T16:21:02.056Z,9.90
2018-11-01T16:23:31.691Z,11.00
2018-11-01T16:26:01.390Z,13.40
2018-11-01T16:28:31.535Z,11.23
2018-11-01T16:31:00.677Z,13.03
2018-11-01T16:33:29.940Z,11.90
2018-11-01T16:36:01.080Z,11.90
2018-11-01T16:38:30.356Z,13.57
2018-11-01T16:40:59.571Z,12.60
2018-11-01T16:43:28.975Z,12.47
2018-11-01T16:45:58.470Z,14.30
2018-11-01T16:48:28.178Z,11.07
2018-11-01T16:50:57.594Z,12.00
2018-11-01T16:53:27.082Z,13.17
2018-11-01T16:55:56.184Z,15.77
2018-11-01T16:58:25.482Z,16.17
2018-11-01T17:00:54.724Z,14.93
2018-11-01T17:03:24.742Z,13.53
2018-11-01T17:05:54.248Z,14.07
2018-11-01T17:08:25.350Z,12.83
2018-11-01T17:10:54.560Z,13.63
2018-11-01T17:13:24.334Z,13.90
2018-11-01T17:15:54.744Z,12.50
2018-11-01T17:18:24.472Z,14.50
2018-11-01T17:20:53.819Z,13.97
2018-11-01T17:23:23.269Z,14.67
2018-11-01T17:25:52.425Z,12.90
2018-11-01T17:28:21.600Z,14.57
2018-11-01T17:30:51.206Z,13.43
2018-11-01T17:33:28.869Z,14.87
2018-11-01T17:35:58.359Z,14.30
2018-11-01T17:38:27.706Z,15.37
2018-11-01T17:41:00.046Z,17.20
2018-11-01T17:43:34.735Z,15.10
2018-11-01T17:46:06.296Z,15.37
2018-11-01T17:48:36.186Z,18.03
2018-11-01T17:51:07.692Z,14.97
2018-11-01T17:53:37.336Z,17.27
2018-11-01T17:59:01.026Z,16.77
2018-11-01T18:01:31.436Z,14.10
2018-11-01T18:04:00.720Z,15.33
2018-11-01T18:06:30.711Z,17.00
2018-11-01T18:09:02.687Z,14.17
2018-11-01T18:11:31.847Z,16.47
2018-11-01T18:14:02.796Z,14.73
2018-11-01T18:16:32.062Z,17.10
2018-11-01T18:19:01.454Z,14.10
2018-11-01T18:21:33.243Z,14.57
2018-11-01T18:24:03.320Z,15.57
2018-11-01T18:26:36.351Z,13.67
2018-11-01T18:29:09.809Z,13.77
2018-11-01T18:31:41.003Z,13.30
2018-11-01T18:34:11.175Z,15.07
2018-11-01T18:36:40.718Z,14.70
2018-11-01T18:39:11.857Z,12.83
2018-11-01T18:41:41.552Z,15.27
2018-11-01T18:44:12.640Z,15.53
2018-11-01T18:46:41.997Z,14.40
2018-11-01T18:49:13.965Z,14.30
2018-11-01T18:51:44.686Z,15.67
2018-11-01T18:54:17.231Z,14.63
2018-11-01T18:56:47.034Z,14.20
2018-11-01T18:59:17.009Z,14.73
2018-11-01T19:01:47.837Z,13.80
2018-11-01T19:04:28.239Z,13.60
2018-11-01T19:07:05.738Z,15.30
2018-11-01T19:09:37.950Z,15.30
2018-11-01T19:12:08.219Z,14.47
2018-11-01T19:14:38.994Z,14.67
2018-11-01T19:17:08.566Z,17.00
2018-11-01T19:19:44.804Z,14.43
2018-11-01T19:22:16.622Z,15.07
2018-11-01T19:24:59.447Z,15.20
2018-11-01T19:27:31.731Z,14.30
2018-11-01T19:30:03.165Z,14.37
2018-11-01T19:35:09.951Z,18.70
2018-11-01T19:37:39.625Z,15.63
2018-11-01T19:41:00.623Z,15.30
2018-11-01T19:43:29.983Z,16.77
2018-11-01T19:45:59.059Z,15.10
2018-11-01T19:48:33.424Z,15.50
2018-11-01T19:51:03.053Z,15.43
2018-11-01T19:53:33.351Z,18.77
2018-11-01T19:59:01.598Z,19.10
2018-11-01T20:01:35.751Z,17.73
2018-11-01T20:04:10.535Z,15.47
2018-11-01T20:06:42.974Z,17.20
2018-11-01T20:09:21.342Z,14.17
2018-11-01T20:11:50.552Z,14.30
2018-11-01T20:14:20.211Z,13.17
2018-11-01T20:17:22.254Z,14.57
2018-11-01T20:22:31.120Z,13.23
2018-11-01T20:25:00.091Z,12.07
2018-11-01T20:27:29.301Z,14.87
2018-11-01T20:29:58.223Z,12.63
2018-11-01T20:32:27.381Z,11.60
2018-11-01T20:34:58.742Z,14.20
2018-11-01T20:37:27.685Z,11.60
2018-11-01T20:39:56.719Z,11.40
2018-11-01T20:42:26.036Z,11.57
2018-11-01T20:44:55.085Z,11.67
2018-11-01T20:47:24.178Z,14.90
2018-11-01T20:49:53.550Z,10.17
2018-11-01T20:52:23.541Z,12.03
2018-11-01T20:54:52.807Z,12.67
2018-11-01T20:57:39.871Z,10.60
2018-11-01T21:00:10.952Z,11.77
2018-11-01T21:02:40.349Z,12.83
2018-11-01T21:05:09.742Z,10.70
2018-11-01T21:07:38.697Z,11.73
2018-11-01T21:10:08.795Z,12.43
2018-11-01T21:12:38.409Z,11.50
2018-11-01T21:15:09.013Z,12.87
2018-11-01T21:17:38.030Z,12.27
2018-11-01T21:20:08.829Z,12.80
2018-11-01T21:22:38.785Z,12.67
2018-11-01T21:25:08.548Z,13.07
2018-11-01T21:27:37.654Z,16.33
2018-11-01T21:30:06.998Z,12.63
2018-11-01T21:32:36.095Z,13.23
2018-11-01T21:35:06.227Z,12.97
2018-11-01T21:37:35.263Z,13.40
2018-11-01T21:40:06.062Z,13.00
2018-11-01T21:42:35.484Z,14.37
2018-11-01T21:45:05.919Z,13.97
2018-11-01T21:47:35.817Z,13.60
2018-11-01T21:50:06.771Z,14.27
2018-11-01T21:52:36.295Z,13.60
2018-11-01T21:55:05.866Z,14.80
2018-11-01T21:57:36.630Z,13.97
2018-11-01T22:00:08.846Z,14.60
2018-11-01T22:02:41.968Z,14.70
2018-11-01T22:05:11.786Z,13.57
2018-11-01T22:07:40.914Z,15.87
2018-11-01T22:10:10.783Z,15.57
2018-11-01T22:12:39.929Z,15.90
2018-11-01T22:15:10.702Z,15.43
2018-11-01T22:17:40.187Z,15.60
2018-11-01T22:20:10.047Z,17.70
2018-11-01T22:22:39.726Z,15.53
2018-11-01T22:25:09.091Z,16.90
2018-11-01T22:27:38.044Z,16.30
2018-11-01T22:30:08.671Z,16.27
2018-11-01T22:32:37.750Z,16.00
2018-11-01T22:35:07.243Z,18.50
2018-11-01T22:37:36.371Z,18.00
2018-11-01T22:40:05.865Z,18.93
2018-11-01T22:42:34.875Z,18.83
2018-11-01T22:45:04.663Z,21.20
2018-11-01T22:47:33.752Z,18.37
2018-11-01T22:50:02.888Z,20.63
2018-11-01T22:52:31.981Z,20.30
2018-11-01T22:55:01.136Z,17.50
2018-11-01T22:57:39.398Z,19.37
2018-11-01T23:00:11.753Z,19.30
2018-11-01T23:02:40.994Z,19.20
2018-11-01T23:05:10.771Z,20.63
2018-11-01T23:07:39.643Z,19.43
2018-11-01T23:10:11.640Z,19.10
2018-11-01T23:12:40.773Z,20.27
2018-11-01T23:15:10.780Z,21.30
2018-11-01T23:17:40.834Z,21.43
2018-11-01T23:20:10.697Z,21.63
2018-11-01T23:22:40.017Z,20.93
2018-11-01T23:25:10.239Z,20.90
2018-11-01T23:27:43.349Z,22.30
2018-11-01T23:30:13.652Z,20.73
2018-11-01T23:32:42.808Z,22.17
2018-11-01T23:35:12.105Z,20.87
2018-11-01T23:37:46.542Z,24.67
2018-11-01T23:40:21.038Z,23.80
2018-11-01T23:42:55.370Z,23.10
2018-11-01T23:45:29.888Z,23.30
2018-11-01T23:48:00.057Z,22.10
2018-11-01T23:50:40.869Z,22.90
2018-11-01T23:53:13.429Z,25.87
2018-11-01T23:55:42.667Z,24.60
2018-11-01T23:58:11.611Z,22.50
